Dades meteomassalio
Diari Summary for Agost 19, 2017 Units:  Metric    English   Both
« Previous Day
Next Day »
Diari Semanal Mensual Anual Personalitzat
  Maxima: Minima: Mijana:
Temperatura: 31.9 °C 19.4 °C 24.9 °C
Rosada: 14.8 °C 12.2 °C 13.4 °C
Humitat: 68 % 31 % 51 %
Velocitat del vent: 27.8 km/h 0.0 km/h 10.1 km/h
Racha vent: 27.8 km/h - -
Vent:- - West
Pressio: 1019.5 hPa 977.5 hPa -
Pluja: 0.0 mm    
Historical Graphs
 
 
Tabular Data for Agost 19, 2017
Time Temperature Dew Point Pressure Wind Wind Speed Wind Gust Humidity Rainfall Rate (Hourly) solar Conditions
00:01 25.1 °C 14.6 °C 1016.5 hPa WNW 24.1 km/h 24.1 km/h 52 % 0.0 mm 0.0 W/m2 CLR
00:06 25.0 °C 14.4 °C 1016.5 hPa WSW 12.9 km/h 12.9 km/h 52 % 0.0 mm 0.0 W/m2 CLR
00:11 24.9 °C 14.7 °C 1016.5 hPa West 22.5 km/h 22.5 km/h 53 % 0.0 mm 0.0 W/m2 CLR
00:16 24.8 °C 14.6 °C 1016.5 hPa West 14.8 km/h 14.8 km/h 53 % 0.0 mm 0.0 W/m2 CLR
00:21 24.7 °C 14.5 °C 1016.8 hPa West 11.1 km/h 11.1 km/h 53 % 0.0 mm 0.0 W/m2 CLR
00:26 24.7 °C 14.7 °C 1016.8 hPa WSW 20.4 km/h 20.4 km/h 54 % 0.0 mm 0.0 W/m2 CLR
00:31 24.6 °C 14.7 °C 1016.8 hPa West 8.0 km/h 8.0 km/h 54 % 0.0 mm 0.0 W/m2 CLR
00:36 24.6 °C 14.6 °C 1016.8 hPa Calm     54 % 0.0 mm 0.0 W/m2 CLR
00:41 24.5 °C 14.6 °C 1016.8 hPa West 13.0 km/h 13.0 km/h 54 % 0.0 mm 0.0 W/m2 CLR
00:46 24.5 °C 14.6 °C 1016.8 hPa SW 9.3 km/h 9.3 km/h 54 % 0.0 mm 0.0 W/m2 CLR
00:51 24.4 °C 14.6 °C 1016.8 hPa West 13.0 km/h 13.0 km/h 54 % 0.0 mm 0.0 W/m2 CLR
00:56 24.4 °C 14.8 °C 1016.8 hPa WNW 20.4 km/h 20.4 km/h 55 % 0.0 mm 0.0 W/m2 CLR
01:01 24.3 °C 14.7 °C 1016.8 hPa WNW 27.8 km/h 27.8 km/h 55 % 0.0 mm 0.0 W/m2 CLR
01:06 24.2 °C 14.6 °C 1016.8 hPa WSW 7.4 km/h 7.4 km/h 55 % 0.0 mm 0.0 W/m2 CLR
01:11 24.1 °C 14.5 °C 1016.8 hPa West 20.4 km/h 20.4 km/h 55 % 0.0 mm 0.0 W/m2 CLR
01:16 24.0 °C 14.7 °C 1017.2 hPa West 25.9 km/h 25.9 km/h 56 % 0.0 mm 0.0 W/m2 CLR
01:21 23.9 °C 14.6 °C 1017.2 hPa West 18.5 km/h 18.5 km/h 56 % 0.0 mm 0.0 W/m2 CLR
01:26 23.8 °C 14.7 °C 1017.2 hPa West 14.8 km/h 14.8 km/h 57 % 0.0 mm 0.0 W/m2 CLR
01:31 23.7 °C 14.7 °C 1017.2 hPa West 22.5 km/h 22.5 km/h 57 % 0.0 mm 0.0 W/m2 CLR
01:36 23.6 °C 14.6 °C 1017.2 hPa WNW 18.5 km/h 18.5 km/h 57 % 0.0 mm 0.0 W/m2 CLR
01:41 23.6 °C 14.6 °C 1017.2 hPa WSW 16.7 km/h 16.7 km/h 57 % 0.0 mm 0.0 W/m2 CLR
01:46 23.4 °C 14.7 °C 1017.2 hPa West 14.8 km/h 14.8 km/h 58 % 0.0 mm 0.0 W/m2 CLR
01:51 23.4 °C 14.7 °C 1017.2 hPa West 24.1 km/h 24.1 km/h 58 % 0.0 mm 0.0 W/m2 CLR
01:56 23.3 °C 14.6 °C 1017.2 hPa WSW 18.5 km/h 18.5 km/h 58 % 0.0 mm 0.0 W/m2 CLR
02:01 23.2 °C 14.5 °C 1017.2 hPa WNW 18.5 km/h 18.5 km/h 58 % 0.0 mm 0.0 W/m2 CLR
02:06 23.1 °C 14.7 °C 1017.5 hPa SW 5.6 km/h 5.6 km/h 59 % 0.0 mm 0.0 W/m2 CLR
02:11 23.0 °C 14.3 °C 1017.2 hPa WNW 18.5 km/h 18.5 km/h 58 % 0.0 mm 0.0 W/m2 CLR
02:16 22.9 °C 14.2 °C 1017.5 hPa West 20.4 km/h 20.4 km/h 58 % 0.0 mm 0.0 W/m2 CLR
02:21 22.8 °C 14.3 °C 1017.5 hPa West 4.8 km/h 4.8 km/h 59 % 0.0 mm 0.0 W/m2 CLR
02:26 22.7 °C 14.2 °C 1017.5 hPa WNW 1.9 km/h 1.9 km/h 59 % 0.0 mm 0.0 W/m2 CLR
02:31 22.6 °C 14.1 °C 1017.2 hPa West 1.9 km/h 1.9 km/h 59 % 0.0 mm 0.0 W/m2 CLR
02:36 22.5 °C 14.1 °C 1017.5 hPa West 9.3 km/h 9.3 km/h 59 % 0.0 mm 0.0 W/m2 CLR
02:41 22.4 °C 14.1 °C 1017.5 hPa West 4.8 km/h 4.8 km/h 59 % 0.0 mm 0.0 W/m2 CLR
02:46 22.4 °C 14.0 °C 1017.5 hPa West 19.3 km/h 19.3 km/h 59 % 0.0 mm 0.0 W/m2 CLR
02:51 22.4 °C 14.0 °C 1017.5 hPa WNW 7.4 km/h 7.4 km/h 59 % 0.0 mm 0.0 W/m2 CLR
02:56 22.3 °C 13.9 °C 1017.2 hPa WNW 9.7 km/h 9.7 km/h 59 % 0.0 mm 0.0 W/m2 CLR
03:01 22.2 °C 13.8 °C 1017.2 hPa West 5.6 km/h 5.6 km/h 59 % 0.0 mm 0.0 W/m2 CLR
03:06 22.2 °C 13.8 °C 1017.2 hPa Calm     59 % 0.0 mm 0.0 W/m2 CLR
03:11 22.1 °C 13.9 °C 1017.2 hPa West 9.3 km/h 9.3 km/h 60 % 0.0 mm 0.0 W/m2 CLR
03:16 22.0 °C 13.9 °C 1017.2 hPa Calm     60 % 0.0 mm 0.0 W/m2 CLR
03:21 21.9 °C 13.8 °C 1017.2 hPa Calm     60 % 0.0 mm 0.0 W/m2 CLR
03:26 21.9 °C 13.8 °C 1017.2 hPa Calm     60 % 0.0 mm 0.0 W/m2 CLR
03:31 21.8 °C 13.7 °C 1017.2 hPa WNW 7.4 km/h 7.4 km/h 60 % 0.0 mm 0.0 W/m2 CLR
03:36 21.8 °C 13.7 °C 1017.2 hPa West 4.8 km/h 4.8 km/h 60 % 0.0 mm 0.0 W/m2 CLR
03:41 21.8 °C 13.4 °C 1017.2 hPa West 9.7 km/h 9.7 km/h 59 % 0.0 mm 0.0 W/m2 CLR
03:46 21.7 °C 13.3 °C 1017.2 hPa WNW 13.0 km/h 13.0 km/h 59 % 0.0 mm 0.0 W/m2 CLR
03:51 21.7 °C 13.3 °C 1017.2 hPa West 11.1 km/h 11.1 km/h 59 % 0.0 mm 0.0 W/m2 CLR
03:56 21.8 °C 13.4 °C 1017.2 hPa WSW 9.3 km/h 9.3 km/h 59 % 0.0 mm 0.0 W/m2 CLR
04:01 21.7 °C 13.1 °C 1017.2 hPa West 6.4 km/h 6.4 km/h 58 % 0.0 mm 0.0 W/m2 CLR
04:06 21.7 °C 13.1 °C 1017.2 hPa West 13.0 km/h 13.0 km/h 58 % 0.0 mm 0.0 W/m2 CLR
04:12 21.7 °C 13.3 °C 1017.2 hPa WNW 7.4 km/h 7.4 km/h 59 % 0.0 mm 0.0 W/m2 CLR
04:17 21.6 °C 13.3 °C 1017.2 hPa WNW 5.6 km/h 5.6 km/h 59 % 0.0 mm 0.0 W/m2 CLR
04:22 21.5 °C 13.2 °C 1017.2 hPa West 5.6 km/h 5.6 km/h 59 % 0.0 mm 0.0 W/m2 CLR
04:27 21.4 °C 13.1 °C 1017.2 hPa Calm     59 % 0.0 mm 0.0 W/m2 CLR
04:32 21.3 °C 13.2 °C 1017.2 hPa WNW 5.6 km/h 5.6 km/h 60 % 0.0 mm 0.0 W/m2 CLR
04:37 21.3 °C 13.2 °C 1017.2 hPa West 1.9 km/h 1.9 km/h 60 % 0.0 mm 0.0 W/m2 CLR
04:42 21.3 °C 13.2 °C 1017.2 hPa West 5.6 km/h 5.6 km/h 60 % 0.0 mm 0.0 W/m2 CLR
04:47 21.2 °C 13.2 °C 1017.2 hPa West 1.9 km/h   60 % 0.0 mm 0.0 W/m2 CLR
04:52 21.1 °C 13.1 °C 1017.2 hPa Calm     60 % 0.0 mm 0.0 W/m2 CLR
04:57 21.1 °C 13.0 °C 1017.2 hPa West 6.4 km/h 6.4 km/h 60 % 0.0 mm 0.0 W/m2 CLR
05:02 21.1 °C 13.0 °C 1017.5 hPa WSW 9.3 km/h 9.3 km/h 60 % 0.0 mm 0.0 W/m2 CLR
05:07 21.1 °C 13.2 °C 1017.5 hPa West 3.7 km/h 4.2 km/h 61 % 0.0 mm 0.0 W/m2 CLR
05:13 21.1 °C 13.2 °C 1017.5 hPa West 11.1 km/h 11.1 km/h 61 % 0.0 mm 0.0 W/m2 CLR
05:18 21.1 °C 13.2 °C 1017.5 hPa West 18.5 km/h 18.5 km/h 61 % 0.0 mm 0.0 W/m2 CLR
05:22 21.0 °C 13.2 °C 1017.5 hPa WNW 14.5 km/h 14.5 km/h 61 % 0.0 mm 0.0 W/m2 CLR
05:24 20.9 °C 13.4 °C 1017.5 hPa NW 22.2 km/h 22.2 km/h 62 % 0.0 mm 0.0 W/m2 CLR
05:27 20.9 °C 13.3 °C 1017.8 hPa WNW 18.5 km/h 18.5 km/h 62 % 0.0 mm 0.0 W/m2 CLR
05:32 20.8 °C 13.3 °C 1017.8 hPa WNW 14.8 km/h 14.8 km/h 62 % 0.0 mm 0.0 W/m2 CLR
05:37 20.8 °C 13.3 °C 1017.8 hPa WSW 7.4 km/h 7.4 km/h 62 % 0.0 mm 0.0 W/m2 CLR
05:42 20.8 °C 13.3 °C 1017.8 hPa West 19.3 km/h 19.3 km/h 62 % 0.0 mm 0.0 W/m2 CLR
05:47 20.8 °C 13.5 °C 1017.8 hPa NW 20.4 km/h 20.4 km/h 63 % 0.0 mm 0.0 W/m2 CLR
05:52 20.7 °C 13.4 °C 1017.8 hPa WNW 24.1 km/h 24.1 km/h 63 % 0.0 mm 0.0 W/m2 CLR
05:57 20.6 °C 13.3 °C 1017.8 hPa WNW 16.7 km/h 16.7 km/h 63 % 0.0 mm 0.0 W/m2 CLR
06:02 20.5 °C 13.4 °C 1017.8 hPa West 18.5 km/h 18.5 km/h 64 % 0.0 mm 0.0 W/m2 CLR
06:07 20.4 °C 13.4 °C 1017.8 hPa WNW 9.7 km/h 9.7 km/h 64 % 0.0 mm 0.0 W/m2 CLR
06:12 20.4 °C 13.3 °C 1017.8 hPa WSW 18.5 km/h 18.5 km/h 64 % 0.0 mm 0.0 W/m2 CLR
06:17 20.3 °C 13.6 °C 1017.8 hPa West 5.6 km/h 5.6 km/h 65 % 0.0 mm 0.0 W/m2 CLR
06:22 20.3 °C 13.2 °C 1017.8 hPa WSW 5.6 km/h 5.6 km/h 64 % 0.0 mm 0.0 W/m2 CLR
06:27 20.2 °C 13.4 °C 1017.8 hPa Calm     65 % 0.0 mm 0.0 W/m2 CLR
06:32 20.1 °C 13.3 °C 1017.8 hPa Calm     65 % 0.0 mm 0.0 W/m2 CLR
06:33 20.1 °C 13.3 °C 1017.8 hPa Calm     65 % 0.0 mm 0.0 W/m2 CLR
06:38 19.9 °C 13.4 °C 1018.2 hPa Calm     66 % 0.0 mm 0.0 W/m2 CLR
06:43 19.9 °C 13.3 °C 1018.2 hPa Calm     66 % 0.0 mm 0.0 W/m2 CLR
06:48 19.8 °C 13.3 °C 1018.2 hPa Calm     66 % 0.0 mm 0.0 W/m2 CLR
06:53 19.7 °C 13.2 °C 1018.2 hPa Calm     66 % 0.0 mm 0.0 W/m2 CLR
06:58 19.6 °C 13.3 °C 1018.2 hPa West 7.4 km/h 7.4 km/h 67 % 0.0 mm 0.0 W/m2 CLR
07:03 19.6 °C 13.3 °C 1018.5 hPa WSW 3.7 km/h 3.7 km/h 67 % 0.0 mm 0.0 W/m2 OVC
07:08 19.6 °C 13.3 °C 1018.5 hPa Calm     67 % 0.0 mm 0.0 W/m2 OVC
07:13 19.6 °C 13.3 °C 1018.5 hPa Calm     67 % 0.0 mm 0.0 W/m2 OVC
07:18 19.5 °C 13.2 °C 1018.5 hPa Calm     67 % 0.0 mm 7.0 W/m2 BKN
07:23 19.4 °C 13.2 °C 1018.5 hPa Calm     67 % 0.0 mm 11.0 W/m2 BKN
07:28 19.4 °C 13.1 °C 1018.5 hPa WSW 1.9 km/h 1.9 km/h 67 % 0.0 mm 12.0 W/m2 BKN
07:33 19.4 °C 13.1 °C 1018.5 hPa WSW 6.4 km/h 6.4 km/h 67 % 0.0 mm 18.0 W/m2 BKN
07:38 19.4 °C 13.1 °C 1018.5 hPa Calm     67 % 0.0 mm 21.0 W/m2 BKN
07:43 19.4 °C 13.1 °C 1018.5 hPa WSW 5.6 km/h 5.6 km/h 67 % 0.0 mm 25.0 W/m2 BKN
07:48 19.4 °C 13.3 °C 1018.5 hPa SW 5.6 km/h 5.6 km/h 68 % 0.0 mm 32.0 W/m2 BKN
07:53 19.4 °C 13.2 °C 1018.8 hPa Calm     67 % 0.0 mm 35.0 W/m2 BKN
07:58 19.5 °C 13.2 °C 1018.5 hPa SW 1.6 km/h 1.6 km/h 67 % 0.0 mm 51.0 W/m2 SCT
08:03 19.6 °C 13.3 °C 1018.8 hPa Calm     67 % 0.0 mm 60.0 W/m2 SCT
08:08 19.7 °C 13.4 °C 1018.8 hPa SW 3.7 km/h   67 % 0.0 mm 91.0 W/m2 FEW
08:13 19.9 °C 13.4 °C 1018.5 hPa SW 7.4 km/h 7.4 km/h 66 % 0.0 mm 109.0 W/m2 CLR
08:18 20.2 °C 13.6 °C 1018.8 hPa SW 3.7 km/h 3.7 km/h 66 % 0.0 mm 118.0 W/m2 CLR
08:23 20.4 °C 13.6 °C 1018.8 hPa WSW 5.6 km/h 5.6 km/h 65 % 0.0 mm 141.0 W/m2 CLR
08:28 20.6 °C 13.6 °C 1018.8 hPa Calm     64 % 0.0 mm 162.0 W/m2 CLR
08:33 20.8 °C 13.8 °C 1018.8 hPa West 12.9 km/h 12.9 km/h 64 % 0.0 mm 179.0 W/m2 CLR
08:38 21.1 °C 13.7 °C 1018.8 hPa West 9.3 km/h 9.3 km/h 63 % 0.0 mm 121.0 W/m2 CLR
08:43 21.1 °C 13.6 °C 1018.8 hPa West 11.3 km/h 11.3 km/h 62 % 0.0 mm 95.0 W/m2 CLR
08:45 21.1 °C 13.5 °C 1018.8 hPa WNW 13.0 km/h 13.0 km/h 62 % 0.0 mm 91.0 W/m2 CLR
08:50 21.1 °C 13.5 °C 1019.2 hPa West 7.4 km/h 7.4 km/h 62 % 0.0 mm 139.0 W/m2 CLR
08:55 21.1 °C 13.5 °C 1018.8 hPa WNW 14.5 km/h 14.5 km/h 62 % 0.0 mm 153.0 W/m2 CLR
09:00 21.1 °C 13.6 °C 1018.8 hPa WNW 7.4 km/h 7.4 km/h 62 % 0.0 mm 142.0 W/m2 CLR
09:05 21.3 °C 13.7 °C 1019.2 hPa West 13.0 km/h 13.0 km/h 62 % 0.0 mm 313.0 W/m2 CLR
09:10 21.5 °C 13.7 °C 1019.2 hPa WNW 12.9 km/h 12.9 km/h 61 % 0.0 mm 330.0 W/m2 CLR
09:15 21.7 °C 13.6 °C 1019.2 hPa West 18.5 km/h 18.5 km/h 60 % 0.0 mm 165.0 W/m2 CLR
09:20 21.7 °C 13.6 °C 1019.2 hPa WNW 24.1 km/h 24.1 km/h 60 % 0.0 mm 141.0 W/m2 CLR
09:25 21.7 °C 13.6 °C 1019.2 hPa West 16.7 km/h 16.7 km/h 60 % 0.0 mm 211.0 W/m2 CLR
09:30 21.7 °C 13.6 °C 1019.2 hPa West 12.9 km/h 12.9 km/h 60 % 0.0 mm 281.0 W/m2 CLR
09:35 21.8 °C 13.7 °C 1019.2 hPa West 14.8 km/h 14.8 km/h 60 % 0.0 mm 160.0 W/m2 CLR
09:40 21.8 °C 13.7 °C 1019.2 hPa WNW 7.4 km/h 7.7 km/h 60 % 0.0 mm 318.0 W/m2 CLR
09:45 21.9 °C 13.5 °C 1019.2 hPa WNW 24.1 km/h 24.1 km/h 59 % 0.0 mm 302.0 W/m2 CLR
09:50 21.9 °C 13.6 °C 1019.2 hPa NW 18.5 km/h 18.5 km/h 59 % 0.0 mm 404.0 W/m2 CLR
09:55 22.2 °C 13.8 °C 1019.2 hPa WNW 19.3 km/h 19.3 km/h 59 % 0.0 mm 422.0 W/m2 CLR
10:00 22.3 °C 13.6 °C 1019.2 hPa West 19.3 km/h 19.3 km/h 58 % 0.0 mm 436.0 W/m2 CLR
10:05 22.2 °C 13.8 °C 1019.2 hPa West 11.3 km/h 11.3 km/h 59 % 0.0 mm 299.0 W/m2 CLR
10:10 22.3 °C 13.6 °C 1019.2 hPa NW 13.0 km/h 13.0 km/h 58 % 0.0 mm 241.0 W/m2 CLR
10:15 22.6 °C 13.9 °C 1019.2 hPa WNW 24.1 km/h 24.1 km/h 58 % 0.0 mm 483.0 W/m2 CLR
10:20 22.7 °C 14.0 °C 1019.2 hPa WNW 18.5 km/h 18.5 km/h 58 % 0.0 mm 503.0 W/m2 CLR
10:25 22.8 °C 13.9 °C 1019.2 hPa WNW 18.5 km/h 18.5 km/h 57 % 0.0 mm 508.0 W/m2 CLR
10:30 22.8 °C 13.6 °C 1019.2 hPa WNW 24.1 km/h 24.1 km/h 56 % 0.0 mm 503.0 W/m2 CLR
10:35 23.0 °C 13.7 °C 1019.2 hPa West 19.3 km/h 19.3 km/h 56 % 0.0 mm 531.0 W/m2 CLR
10:40 23.2 °C 13.9 °C 1019.2 hPa NW 24.1 km/h 24.1 km/h 56 % 0.0 mm 543.0 W/m2 CLR
10:45 23.4 °C 13.8 °C 1019.2 hPa NNW 13.0 km/h 13.0 km/h 55 % 0.0 mm 545.0 W/m2 CLR
10:50 23.6 °C 13.7 °C 1019.2 hPa NW 20.4 km/h 20.4 km/h 54 % 0.0 mm 564.0 W/m2 CLR
10:55 23.8 °C 13.9 °C 1019.2 hPa NW 22.2 km/h 22.2 km/h 54 % 0.0 mm 575.0 W/m2 CLR
11:00 23.7 °C 13.8 °C 1019.2 hPa WNW 24.1 km/h 24.1 km/h 54 % 0.0 mm 624.0 W/m2 CLR
11:05 23.6 °C 13.4 °C 1019.2 hPa WNW 14.8 km/h 14.8 km/h 53 % 0.0 mm 619.0 W/m2 CLR
11:10 23.6 °C 13.8 °C 1019.2 hPa West 9.7 km/h 9.7 km/h 54 % 0.0 mm 629.0 W/m2 CLR
11:15 24.1 °C 13.9 °C 1019.2 hPa WNW 18.5 km/h   53 % 0.0 mm 635.0 W/m2 CLR
11:20 24.3 °C 13.8 °C 1019.5 hPa NNW 18.5 km/h 18.5 km/h 52 % 0.0 mm 652.0 W/m2 CLR
11:25 24.5 °C 14.0 °C 1019.5 hPa West 11.3 km/h 11.3 km/h 52 % 0.0 mm 664.0 W/m2 CLR
11:30 24.6 °C 13.7 °C 1019.5 hPa West 22.2 km/h 22.2 km/h 51 % 0.0 mm 670.0 W/m2 CLR
11:35 24.4 °C 13.9 °C 1019.5 hPa SSW 9.3 km/h 9.3 km/h 52 % 0.0 mm 673.0 W/m2 CLR
11:40 24.6 °C 13.7 °C 1019.2 hPa SW 14.8 km/h 14.8 km/h 51 % 0.0 mm 677.0 W/m2 CLR
11:45 24.4 °C 13.7 °C 1019.2 hPa West 14.8 km/h 14.8 km/h 51 % 0.0 mm 694.0 W/m2 CLR
11:50 24.8 °C 13.9 °C 1019.2 hPa NNW 6.4 km/h 6.4 km/h 51 % 0.0 mm 700.0 W/m2 CLR
11:55 25.2 °C 13.7 °C 1019.2 hPa WNW 20.4 km/h 20.4 km/h 49 % 0.0 mm 714.0 W/m2 CLR
12:00 25.6 °C 13.8 °C 1019.2 hPa WNW 16.1 km/h 16.1 km/h 48 % 0.0 mm 728.0 W/m2 CLR
12:05 25.5 °C 13.7 °C 1019.2 hPa Calm     48 % 0.0 mm 749.0 W/m2 CLR
12:10 25.4 °C 13.6 °C 1019.2 hPa NW 20.4 km/h 20.4 km/h 48 % 0.0 mm 715.0 W/m2 CLR
12:15 25.4 °C 13.6 °C 1019.2 hPa West 14.8 km/h 14.8 km/h 48 % 0.0 mm 786.0 W/m2 CLR
12:20 25.3 °C 13.6 °C 1019.2 hPa WNW 14.8 km/h 14.8 km/h 48 % 0.0 mm 729.0 W/m2 CLR
12:25 25.9 °C 13.4 °C 1019.2 hPa WNW 24.1 km/h 24.1 km/h 46 % 0.0 mm 740.0 W/m2 CLR
12:30 25.8 °C 13.6 °C 1019.2 hPa NW 18.5 km/h 18.5 km/h 47 % 0.0 mm 689.0 W/m2 CLR
12:35 25.9 °C 13.7 °C 1018.8 hPa NNW 20.4 km/h 20.4 km/h 47 % 0.0 mm 789.0 W/m2 CLR
12:40 26.1 °C 13.6 °C 1018.8 hPa WNW 18.5 km/h 18.5 km/h 46 % 0.0 mm 759.0 W/m2 CLR
12:45 26.1 °C 13.9 °C 1018.5 hPa NNW 13.0 km/h 13.0 km/h 47 % 0.0 mm 763.0 W/m2 CLR
12:50 26.3 °C 13.1 °C 1018.8 hPa NW 13.0 km/h 13.0 km/h 44 % 0.0 mm 898.0 W/m2 CLR
12:55 26.4 °C 13.5 °C 1018.5 hPa West 13.0 km/h 13.0 km/h 45 % 0.0 mm 798.0 W/m2 CLR
12:56 26.5 °C 13.6 °C 1018.5 hPa NW 18.5 km/h 18.5 km/h 45 % 0.0 mm 561.0 W/m2 CLR
13:01 26.5 °C 13.6 °C 1018.5 hPa WNW 18.5 km/h 18.5 km/h 45 % 0.0 mm 633.0 W/m2 CLR
13:06 26.5 °C 13.3 °C 1018.5 hPa NW 20.9 km/h 20.9 km/h 44 % 0.0 mm 837.0 W/m2 CLR
13:11 26.7 °C 13.1 °C 1018.5 hPa West 9.3 km/h 9.3 km/h 43 % 0.0 mm 700.0 W/m2 CLR
13:16 26.9 °C 13.3 °C 1018.5 hPa WNW 17.7 km/h 17.7 km/h 43 % 0.0 mm 849.0 W/m2 CLR
13:21 27.2 °C 13.2 °C 1018.5 hPa NNW 18.5 km/h 18.5 km/h 42 % 0.0 mm 844.0 W/m2 CLR
13:26 27.5 °C 13.1 °C 1018.5 hPa NW 14.8 km/h 14.8 km/h 41 % 0.0 mm 842.0 W/m2 CLR
13:31 27.4 °C 13.3 °C 1018.5 hPa NNW 5.6 km/h 5.6 km/h 42 % 0.0 mm 844.0 W/m2 CLR
13:36 27.4 °C 13.0 °C 1018.5 hPa NW 18.5 km/h 18.5 km/h 41 % 0.0 mm 844.0 W/m2 CLR
13:41 27.7 °C 13.2 °C 1018.5 hPa NW 18.5 km/h 18.5 km/h 41 % 0.0 mm 844.0 W/m2 CLR
13:46 27.9 °C 13.1 °C 1018.5 hPa NNW 16.7 km/h 16.7 km/h 40 % 0.0 mm 846.0 W/m2 CLR
13:51 27.7 °C 12.9 °C 1018.5 hPa North 13.0 km/h 13.0 km/h 40 % 0.0 mm 849.0 W/m2 CLR
13:53 27.8 °C 13.0 °C 1018.2 hPa NW 18.5 km/h 18.5 km/h 40 % 0.0 mm 847.0 W/m2 CLR
13:58 28.1 °C 12.8 °C 1018.5 hPa WNW 9.3 km/h 9.3 km/h 39 % 0.0 mm 844.0 W/m2 CLR
14:03 28.2 °C 12.9 °C 1018.2 hPa WNW 17.7 km/h 17.7 km/h 39 % 0.0 mm 831.0 W/m2 CLR
14:08 28.3 °C 12.6 °C 1018.2 hPa NW 20.9 km/h 20.9 km/h 38 % 0.0 mm 844.0 W/m2 CLR
14:13 28.4 °C 12.7 °C 1018.2 hPa NNW 14.8 km/h 14.8 km/h 38 % 0.0 mm 856.0 W/m2 CLR
14:18 28.4 °C 13.1 °C 1017.8 hPa North 3.2 km/h 3.2 km/h 39 % 0.0 mm 837.0 W/m2 CLR
14:23 28.7 °C 13.3 °C 1017.8 hPa North 18.5 km/h 18.5 km/h 39 % 0.0 mm 842.0 W/m2 CLR
14:28 28.8 °C 13.1 °C 1017.8 hPa NW 18.5 km/h 18.5 km/h 38 % 0.0 mm 875.0 W/m2 CLR
14:33 29.1 °C 12.9 °C 1018.2 hPa NNE 14.5 km/h 14.5 km/h 37 % 0.0 mm 872.0 W/m2 CLR
14:38 29.3 °C 13.1 °C 1017.8 hPa North 9.7 km/h 9.7 km/h 37 % 0.0 mm 874.0 W/m2 CLR
14:43 29.5 °C 13.3 °C 1017.8 hPa ENE 5.6 km/h 5.6 km/h 37 % 0.0 mm 868.0 W/m2 CLR
14:48 29.7 °C 13.1 °C 1017.8 hPa North 18.5 km/h 18.5 km/h 36 % 0.0 mm 944.0 W/m2 CLR
14:53 30.0 °C 13.3 °C 1017.8 hPa North 14.8 km/h 14.8 km/h 36 % 0.0 mm 932.0 W/m2 CLR
14:58 29.8 °C 12.7 °C 1017.8 hPa WNW 9.3 km/h 9.3 km/h 35 % 0.0 mm 459.0 W/m2 CLR
15:03 29.4 °C 12.4 °C 1017.8 hPa WNW 3.7 km/h 3.7 km/h 35 % 0.0 mm 564.0 W/m2 CLR
15:08 29.7 °C 12.6 °C 1017.8 hPa Calm     35 % 0.0 mm 838.0 W/m2 CLR
15:13 30.1 °C 12.5 °C 1017.5 hPa West 5.6 km/h 5.6 km/h 34 % 0.0 mm 795.0 W/m2 CLR
15:18 30.2 °C 13.1 °C 1017.5 hPa Calm     35 % 0.0 mm 803.0 W/m2 CLR
15:23 30.5 °C 12.9 °C 1017.5 hPa NW 5.6 km/h 5.6 km/h 34 % 0.0 mm 812.0 W/m2 CLR
15:28 30.6 °C 12.9 °C 1017.5 hPa Calm     34 % 0.0 mm 717.0 W/m2 CLR
15:33 30.6 °C 12.9 °C 1017.5 hPa North 18.5 km/h 18.5 km/h 34 % 0.0 mm 703.0 W/m2 CLR
15:38 30.2 °C 12.6 °C 1017.2 hPa NW 11.3 km/h 11.3 km/h 34 % 0.0 mm 675.0 W/m2 CLR
15:43 30.1 °C 12.9 °C 1017.2 hPa Calm     35 % 0.0 mm 784.0 W/m2 CLR
15:48 30.4 °C 12.8 °C 1017.2 hPa NNW 7.4 km/h 7.4 km/h 34 % 0.0 mm 770.0 W/m2 CLR
15:53 30.4 °C 12.8 °C 1017.2 hPa Calm     34 % 0.0 mm 772.0 W/m2 CLR
15:58 30.7 °C 12.6 °C 1017.2 hPa Calm     33 % 0.0 mm 717.0 W/m2 CLR
16:03 30.9 °C 12.8 °C 1017.2 hPa North 4.8 km/h 4.8 km/h 33 % 0.0 mm 661.0 W/m2 CLR
16:08 30.9 °C 12.7 °C 1016.8 hPa SSW 5.6 km/h 5.6 km/h 33 % 0.0 mm 682.0 W/m2 CLR
16:13 30.8 °C 12.7 °C 1016.8 hPa Calm     33 % 0.0 mm 656.0 W/m2 CLR
16:18 31.1 °C 12.9 °C 1016.8 hPa Calm     33 % 0.0 mm 649.0 W/m2 CLR
16:23 31.3 °C 13.1 °C 1016.8 hPa NNW 18.5 km/h 18.5 km/h 33 % 0.0 mm 573.0 W/m2 CLR
16:28 31.4 °C 12.8 °C 1016.8 hPa NNE 9.3 km/h 9.3 km/h 32 % 0.0 mm 659.0 W/m2 CLR
16:33 31.2 °C 12.5 °C 1016.8 hPa Calm     32 % 0.0 mm 643.0 W/m2 CLR
16:38 31.0 °C 12.8 °C 1016.5 hPa ESE 5.6 km/h 5.6 km/h 33 % 0.0 mm 650.0 W/m2 CLR
16:43 31.1 °C 12.4 °C 1016.5 hPa ENE 7.4 km/h 7.4 km/h 32 % 0.0 mm 617.0 W/m2 CLR
16:48 31.2 °C 12.5 °C 1016.5 hPa Calm     32 % 0.0 mm 519.0 W/m2 CLR
16:53 31.1 °C 12.4 °C 1016.5 hPa Calm     32 % 0.0 mm 536.0 W/m2 CLR
16:58 31.2 °C 12.5 °C 1016.5 hPa Calm     32 % 0.0 mm 563.0 W/m2 CLR
17:03 31.2 °C 12.6 °C 1016.5 hPa NNE 11.1 km/h 11.1 km/h 32 % 0.0 mm 564.0 W/m2 CLR
17:08 31.3 °C 12.6 °C 1016.5 hPa NNE 5.6 km/h   32 % 0.0 mm 483.0 W/m2 CLR
17:13 31.4 °C 12.7 °C 1016.5 hPa ENE 7.4 km/h 7.4 km/h 32 % 0.0 mm 610.0 W/m2 CLR
17:18 31.6 °C 12.8 °C 1016.5 hPa East 5.6 km/h 5.6 km/h 32 % 0.0 mm 577.0 W/m2 CLR
17:23 31.6 °C 12.4 °C 1016.5 hPa ENE 7.4 km/h 7.4 km/h 31 % 0.0 mm 592.0 W/m2 CLR
17:28 31.4 °C 12.2 °C 1016.5 hPa Calm     31 % 0.0 mm 512.0 W/m2 CLR
17:29 31.4 °C 12.7 °C 1016.5 hPa Calm     32 % 0.0 mm 480.0 W/m2 CLR
17:34 31.6 °C 12.4 °C 1016.5 hPa ENE 5.6 km/h 5.6 km/h 31 % 0.0 mm 531.0 W/m2 CLR
17:39 31.8 °C 12.6 °C 1016.1 hPa North 1.9 km/h 1.9 km/h 31 % 0.0 mm 475.0 W/m2 CLR
17:44 31.9 °C 12.7 °C 1016.1 hPa North 9.3 km/h 9.3 km/h 31 % 0.0 mm 541.0 W/m2 CLR
18:16 31.9 °C 12.7 °C 977.9 hPa Calm     31 % 0.0 mm 0.0 W/m2 OVC
18:25 31.9 °C 12.7 °C 977.9 hPa Calm     31 % 0.0 mm 0.0 W/m2 OVC
18:30 31.9 °C 12.7 °C 977.9 hPa Calm     31 % 0.0 mm 0.0 W/m2 OVC
18:35 31.9 °C 12.7 °C 977.9 hPa Calm     31 % 0.0 mm 0.0 W/m2 OVC
18:40 31.9 °C 12.7 °C 977.9 hPa Calm     31 % 0.0 mm 0.0 W/m2 OVC
18:45 31.9 °C 12.7 °C 977.9 hPa Calm     31 % 0.0 mm 0.0 W/m2 OVC
18:50 31.9 °C 12.7 °C 977.9 hPa Calm     31 % 0.0 mm 0.0 W/m2 OVC
18:55 31.9 °C 12.7 °C 977.9 hPa Calm     31 % 0.0 mm 0.0 W/m2 OVC
19:00 31.9 °C 12.7 °C 977.9 hPa Calm     31 % 0.0 mm 0.0 W/m2 OVC
19:05 31.9 °C 12.7 °C 977.5 hPa Calm     31 % 0.0 mm 0.0 W/m2 OVC
19:10 31.9 °C 12.7 °C 977.5 hPa Calm     31 % 0.0 mm 0.0 W/m2 OVC
19:15 31.9 °C 12.7 °C 977.9 hPa Calm     31 % 0.0 mm 0.0 W/m2 OVC
19:20 31.9 °C 12.7 °C 977.9 hPa Calm     31 % 0.0 mm 0.0 W/m2 OVC
19:25 31.9 °C 12.7 °C 977.5 hPa Calm     31 % 0.0 mm 0.0 W/m2 OVC
19:30 31.9 °C 12.7 °C 977.9 hPa Calm     31 % 0.0 mm 0.0 W/m2 OVC
19:35 31.9 °C 12.7 °C 977.9 hPa Calm     31 % 0.0 mm 0.0 W/m2 OVC
Lo Temps de Massalio
Compliments of Weather Underground - 1 mb